Time;durP1;ratioP1;P1;durP2;ratioP2;P2;SDS_P1;SDS_P2;PMS_P1;PMS_P2;Temp;Humidity;BMP_temperature;BMP_pressure;BME280_temperature;BME280_humidity;BME280_pressure;Samples;Min_cycle;Max_cycle;Signal;HPM_P1;HPM_P2
2021/06/20 00:00:59;;;;;;;;;;;;;;;28.02;47.47;100712.88;1651078;86;20146;-76
2021/06/20 00:03:24;;;;;;;;;;;;;;;28.03;47.53;100717.32;1651067;86;20159;-76
2021/06/20 00:05:54;;;;;;;;;;;;;;;28.03;47.72;100715.94;1650928;87;20446;-76
2021/06/20 00:08:20;;;;;;;;;;;;;;;28.03;47.68;100714.56;1650996;86;20143;-76
2021/06/20 00:10:48;;;;;;;;;;;;;;;28.01;47.59;100712.06;1650507;87;20432;-76
2021/06/20 00:13:18;;;;;;;;;;;;;;;27.99;47.69;100712.06;1650599;87;20396;-76
2021/06/20 00:15:47;;;;;;;;;;;;;;;28.01;47.65;100705.72;1649863;86;20186;-77
2021/06/20 00:18:14;;;;;;;;;;;;;;;27.99;47.42;100704.63;1650920;87;20150;-76
2021/06/20 00:20:44;;;;;;;;;;;;;;;27.97;47.20;100697.72;1650813;86;20171;-77
2021/06/20 00:23:10;;;;;;;;;;;;;;;27.97;46.85;100688.08;1651218;86;20420;-76
2021/06/20 00:25:37;;;;;;;;;;;;;;;27.95;46.76;100680.66;1650712;86;20168;-76
2021/06/20 00:28:03;;;;;;;;;;;;;;;27.94;46.77;100681.75;1651023;87;20164;-76
2021/06/20 00:30:30;;;;;;;;;;;;;;;27.91;46.74;100673.47;1650918;87;20173;-77
2021/06/20 00:32:57;;;;;;;;;;;;;;;27.89;46.62;100676.20;1650808;86;20478;-76
2021/06/20 00:35:23;;;;;;;;;;;;;;;27.86;46.38;100676.75;1650741;87;20156;-77
2021/06/20 00:37:50;;;;;;;;;;;;;;;27.83;46.47;100678.66;1650841;87;20103;-76
2021/06/20 00:40:17;;;;;;;;;;;;;;;27.81;46.28;100678.38;1650970;86;20164;-76
2021/06/20 00:42:43;;;;;;;;;;;;;;;27.81;46.38;100685.81;1650828;86;20424;-76
2021/06/20 00:45:10;;;;;;;;;;;;;;;27.80;46.54;100680.86;1650973;86;20201;-76
2021/06/20 00:47:36;;;;;;;;;;;;;;;27.78;46.39;100676.16;1651252;87;20131;-76
2021/06/20 00:50:06;;;;;;;;;;;;;;;27.78;46.20;100686.34;1650982;87;20147;-76
2021/06/20 00:52:36;;;;;;;;;;;;;;;27.77;46.26;100681.94;1650786;86;20147;-77
2021/06/20 00:55:03;;;;;;;;;;;;;;;27.75;46.21;100669.83;1650918;86;20147;-77
2021/06/20 00:57:28;;;;;;;;;;;;;;;27.73;46.17;100656.03;1650823;87;20151;-77
2021/06/20 00:59:54;;;;;;;;;;;;;;;27.71;46.30;100645.28;1651039;86;20173;-77
2021/06/20 01:02:21;;;;;;;;;;;;;;;27.70;46.26;100649.09;1650606;86;20136;-77
2021/06/20 01:04:48;;;;;;;;;;;;;;;27.71;46.18;100652.16;1650883;87;20437;-77
2021/06/20 01:07:16;;;;;;;;;;;;;;;27.71;46.04;100650.78;1651079;86;20151;-77
2021/06/20 01:09:43;;;;;;;;;;;;;;;27.70;46.16;100654.60;1650876;87;20181;-77
2021/06/20 01:12:09;;;;;;;;;;;;;;;27.69;46.06;100648.83;1650692;86;20201;-77
2021/06/20 01:14:35;;;;;;;;;;;;;;;27.70;46.00;100649.65;1650814;86;20155;-77
2021/06/20 01:17:02;;;;;;;;;;;;;;;27.66;46.18;100663.66;1650824;86;20155;-77
2021/06/20 01:19:30;;;;;;;;;;;;;;;27.67;46.24;100674.42;1650819;87;20140;-78
2021/06/20 01:21:57;;;;;;;;;;;;;;;27.67;46.31;100672.22;1651041;86;20144;-78
2021/06/20 01:24:23;;;;;;;;;;;;;;;27.67;46.49;100657.91;1628114;87;20444;-77
2021/06/20 01:26:49;;;;;;;;;;;;;;;27.64;46.20;100648.80;1651231;87;20166;-77
2021/06/20 01:29:19;;;;;;;;;;;;;;;27.62;46.20;100645.50;1651063;86;20456;-77
2021/06/20 01:31:49;;;;;;;;;;;;;;;27.60;46.11;100640.80;1650943;86;20139;-77
2021/06/20 01:34:13;;;;;;;;;;;;;;;27.56;45.94;100650.67;1650841;87;20135;-77
2021/06/20 01:36:39;;;;;;;;;;;;;;;27.56;45.92;100645.17;1650891;86;20151;-77
2021/06/20 01:39:05;;;;;;;;;;;;;;;27.57;45.87;100644.10;1651285;86;20144;-77
2021/06/20 01:41:32;;;;;;;;;;;;;;;27.55;45.68;100640.77;1650913;86;20436;-77
2021/06/20 01:43:58;;;;;;;;;;;;;;;27.54;45.75;100643.25;1651024;87;20154;-77
2021/06/20 01:46:24;;;;;;;;;;;;;;;27.52;45.40;100641.30;1650982;86;20181;-77
2021/06/20 01:48:50;;;;;;;;;;;;;;;27.51;45.29;100630.84;1651183;86;20185;-76
2021/06/20 01:51:16;;;;;;;;;;;;;;;27.50;45.12;100629.73;1651113;86;20134;-77
2021/06/20 01:53:42;;;;;;;;;;;;;;;27.47;45.09;100637.14;1651198;87;20154;-77
2021/06/20 01:56:08;;;;;;;;;;;;;;;27.48;45.05;100637.41;1650946;86;20198;-77
2021/06/20 01:58:35;;;;;;;;;;;;;;;27.45;44.93;100623.66;1650830;87;20417;-77
2021/06/20 02:01:02;;;;;;;;;;;;;;;27.46;45.06;100624.48;1651023;86;20147;-77
2021/06/20 02:03:28;;;;;;;;;;;;;;;27.46;45.15;100624.48;1651152;87;20190;-77
2021/06/20 02:05:59;;;;;;;;;;;;;;;27.46;45.18;100623.11;1651109;86;20268;-78
2021/06/20 02:08:27;;;;;;;;;;;;;;;27.47;45.01;100624.20;1651079;87;20140;-77
2021/06/20 02:10:55;;;;;;;;;;;;;;;27.48;45.06;100630.02;1650833;87;20428;-77
2021/06/20 02:13:24;;;;;;;;;;;;;;;27.47;44.85;100630.27;1651294;87;20102;-77
2021/06/20 02:15:52;;;;;;;;;;;;;;;27.43;44.72;100629.13;1651114;87;20127;-77
2021/06/20 02:18:18;;;;;;;;;;;;;;;27.44;45.11;100630.81;1651138;86;20237;-77
2021/06/20 02:20:44;;;;;;;;;;;;;;;27.42;45.31;100622.81;1650110;86;20174;-77
2021/06/20 02:23:10;;;;;;;;;;;;;;;27.40;45.28;100617.31;1650423;87;20200;-77
2021/06/20 02:25:38;;;;;;;;;;;;;;;27.38;44.82;100623.61;1650846;87;20203;-76
2021/06/20 02:28:04;;;;;;;;;;;;;;;27.36;44.64;100625.25;1651269;86;20137;-76
2021/06/20 02:30:29;;;;;;;;;;;;;;;27.37;44.80;100624.70;1650881;86;20150;-76
2021/06/20 02:32:56;;;;;;;;;;;;;;;27.36;44.77;100625.25;1650956;86;20136;-76
2021/06/20 02:35:22;;;;;;;;;;;;;;;27.35;44.95;100622.78;1651252;86;20226;-77
2021/06/20 02:37:49;;;;;;;;;;;;;;;27.34;44.92;100625.23;1650907;87;20207;-77
2021/06/20 02:40:16;;;;;;;;;;;;;;;27.36;45.07;100623.05;1651278;87;20160;-77
2021/06/20 02:42:42;;;;;;;;;;;;;;;27.37;45.04;100615.08;1651158;86;20148;-78
2021/06/20 02:45:10;;;;;;;;;;;;;;;27.36;44.90;100603.25;1651144;87;20417;-78
2021/06/20 02:47:36;;;;;;;;;;;;;;;27.35;44.55;100600.78;1651366;87;20131;-78
2021/06/20 02:50:06;;;;;;;;;;;;;;;27.32;43.86;100599.37;1650927;87;20228;-77
2021/06/20 02:52:33;;;;;;;;;;;;;;;27.33;43.85;100604.33;1650327;86;20186;-78
2021/06/20 02:55:01;;;;;;;;;;;;;;;27.31;43.95;100594.97;1649899;86;20313;-76
2021/06/20 02:57:29;;;;;;;;;;;;;;;27.30;43.64;100591.95;1649575;87;20436;-77
2021/06/20 02:59:56;;;;;;;;;;;;;;;27.31;43.79;100596.34;1649778;86;20465;-77
2021/06/20 03:02:23;;;;;;;;;;;;;;;27.33;44.15;100600.20;1649904;87;20599;-76
2021/06/20 03:04:52;;;;;;;;;;;;;;;27.31;43.99;100593.05;1649929;87;20282;-77
2021/06/20 03:07:18;;;;;;;;;;;;;;;27.32;43.86;100592.50;1650022;87;20199;-76
2021/06/20 03:09:45;;;;;;;;;;;;;;;27.30;43.55;100592.77;1650066;87;20199;-76
2021/06/20 03:12:11;;;;;;;;;;;;;;;27.30;43.42;100597.45;1649491;86;20212;-76
2021/06/20 03:14:38;;;;;;;;;;;;;;;27.31;43.21;100606.80;1649548;87;20305;-77
2021/06/20 03:17:04;;;;;;;;;;;;;;;27.31;43.14;100602.67;1649455;86;20459;-76
2021/06/20 03:19:31;;;;;;;;;;;;;;;27.33;43.08;100610.65;1649539;87;20194;-76
2021/06/20 03:22:03;;;;;;;;;;;;;;;27.34;43.04;100610.09;1649447;86;20147;-76
2021/06/20 03:24:32;;;;;;;;;;;;;;;27.31;42.85;100608.17;1651558;86;20189;-76
2021/06/20 03:26:58;;;;;;;;;;;;;;;27.30;42.83;100607.90;1662592;85;20197;-76
2021/06/20 03:29:25;;;;;;;;;;;;;;;27.30;43.17;100607.08;1662656;85;20154;-77
2021/06/20 03:31:51;;;;;;;;;;;;;;;27.30;43.24;100622.20;1662675;85;20176;-77
2021/06/20 03:34:17;;;;;;;;;;;;;;;27.28;43.16;100614.20;1662820;86;20145;-77
2021/06/20 03:36:43;;;;;;;;;;;;;;;27.26;42.97;100626.58;1662793;85;20416;-78
2021/06/20 03:39:09;;;;;;;;;;;;;;;27.26;43.10;100616.40;1662406;85;20390;-77
2021/06/20 03:41:37;;;;;;;;;;;;;;;27.25;43.35;100612.00;1661991;85;20188;-78
2021/06/20 03:44:06;;;;;;;;;;;;;;;27.27;43.26;100616.67;1662462;85;20150;-78
2021/06/20 03:46:36;;;;;;;;;;;;;;;27.27;43.05;100612.55;1661810;85;20197;-78
2021/06/20 03:49:03;;;;;;;;;;;;;;;27.28;43.30;100607.88;1661931;86;20145;-78
2021/06/20 03:51:30;;;;;;;;;;;;;;;27.29;43.17;100606.77;1657924;85;20209;-77
2021/06/20 03:53:56;;;;;;;;;;;;;;;27.29;43.15;100604.84;1650617;86;20199;-76
2021/06/20 03:56:22;;;;;;;;;;;;;;;27.27;43.05;100594.67;1650513;86;20166;-76
2021/06/20 03:58:48;;;;;;;;;;;;;;;27.25;43.18;100592.75;1651332;87;20171;-76
2021/06/20 04:01:15;;;;;;;;;;;;;;;27.24;42.92;100606.19;1651129;86;20469;-76
2021/06/20 04:03:42;;;;;;;;;;;;;;;27.23;43.06;100604.55;1650348;87;20175;-77
2021/06/20 04:06:08;;;;;;;;;;;;;;;27.23;43.05;100602.34;1651394;86;20182;-77
2021/06/20 04:08:36;;;;;;;;;;;;;;;27.21;42.96;100591.62;1650816;86;20187;-76
2021/06/20 04:11:02;;;;;;;;;;;;;;;27.20;42.57;100589.94;1651148;85;20169;-77
2021/06/20 04:13:31;;;;;;;;;;;;;;;27.18;42.65;100589.39;1660393;86;20325;-77
2021/06/20 04:15:57;;;;;;;;;;;;;;;27.19;42.60;100597.91;1663276;86;20309;-75
2021/06/20 04:18:23;;;;;;;;;;;;;;;27.18;42.90;100588.02;1663559;85;20181;-75
2021/06/20 04:20:49;;;;;;;;;;;;;;;27.18;42.88;100589.39;1663591;86;20184;-75
2021/06/20 04:23:16;;;;;;;;;;;;;;;27.20;42.73;100587.73;1664133;86;20199;-75
2021/06/20 04:25:42;;;;;;;;;;;;;;;27.19;42.58;100581.41;1664184;86;20173;-76
2021/06/20 04:28:08;;;;;;;;;;;;;;;27.22;42.72;100587.77;1641529;86;20188;-76
2021/06/20 04:30:34;;;;;;;;;;;;;;;27.26;42.80;100589.44;1665491;86;20136;-76
2021/06/20 04:33:00;;;;;;;;;;;;;;;27.30;42.65;100591.40;1664999;86;20240;-76
2021/06/20 04:35:26;;;;;;;;;;;;;;;27.36;42.59;100590.05;1665317;86;20156;-76
2021/06/20 04:37:52;;;;;;;;;;;;;;;27.39;42.67;100592.25;1663949;85;20223;-77
2021/06/20 04:40:22;;;;;;;;;;;;;;;27.45;42.64;100596.70;1663477;86;20202;-76
2021/06/20 04:42:56;;;;;;;;;;;;;;;27.51;42.29;100605.25;1663139;86;20463;-76
2021/06/20 04:45:16;;;;;;;;;;;;;;;27.54;42.15;100612.98;1653745;85;20508;-76
2021/06/20 04:47:42;;;;;;;;;;;;;;;27.59;42.09;100600.63;1669626;85;20288;-78
2021/06/20 04:50:11;;;;;;;;;;;;;;;27.67;41.83;100597.92;1673394;85;20191;-77
2021/06/20 04:52:42;;;;;;;;;;;;;;;27.76;41.52;100601.84;1675160;85;20462;-77
2021/06/20 04:55:10;;;;;;;;;;;;;;;27.80;41.28;100607.09;1675620;85;20204;-77
2021/06/20 04:57:36;;;;;;;;;;;;;;;27.88;41.33;100607.10;1675551;85;20498;-77
2021/06/20 05:00:06;;;;;;;;;;;;;;;27.90;41.43;100611.25;1675291;85;20209;-77
2021/06/20 05:02:32;;;;;;;;;;;;;;;27.94;41.09;100615.12;1675125;85;20181;-76
2021/06/20 05:04:58;;;;;;;;;;;;;;;28.01;41.01;100620.36;1675282;85;20239;-75
2021/06/20 05:07:24;;;;;;;;;;;;;;;28.05;40.89;100610.47;1674981;85;20184;-75
2021/06/20 05:09:50;;;;;;;;;;;;;;;28.10;40.86;100617.37;1675477;85;20438;-79
2021/06/20 05:12:16;;;;;;;;;;;;;;;28.15;40.65;100622.88;1675425;85;20183;-75
2021/06/20 05:14:44;;;;;;;;;;;;;;;28.21;40.89;100609.42;1675238;85;20176;-78
2021/06/20 05:17:11;;;;;;;;;;;;;;;28.26;40.64;100608.06;1676944;85;20133;-77
2021/06/20 05:19:37;;;;;;;;;;;;;;;28.31;40.00;100610.00;1677067;85;20411;-77
2021/06/20 05:22:04;;;;;;;;;;;;;;;28.35;39.82;100611.14;1677365;85;20436;-76
2021/06/20 05:24:29;;;;;;;;;;;;;;;28.39;39.76;100612.25;1676984;85;20191;-75
2021/06/20 05:26:55;;;;;;;;;;;;;;;28.44;39.69;100615.56;1660791;85;20236;-75
2021/06/20 05:29:22;;;;;;;;;;;;;;;28.48;39.91;100609.76;1647529;87;20447;-77
2021/06/20 05:31:48;;;;;;;;;;;;;;;28.51;39.68;100608.67;1646786;87;20138;-75
2021/06/20 05:34:14;;;;;;;;;;;;;;;28.54;38.93;100604.00;1646943;87;20190;-76
2021/06/20 05:36:40;;;;;;;;;;;;;;;28.56;38.98;100603.71;1647177;87;20527;-77
2021/06/20 05:39:07;;;;;;;;;;;;;;;28.55;39.07;100602.89;1647091;87;20211;-77
2021/06/20 05:41:32;;;;;;;;;;;;;;;28.57;39.13;100609.52;1647266;87;20182;-77
2021/06/20 05:43:58;;;;;;;;;;;;;;;28.59;39.16;100602.35;1647561;87;20195;-77
2021/06/20 05:46:25;;;;;;;;;;;;;;;28.65;39.23;100610.34;1647992;87;20170;-77
2021/06/20 05:48:51;;;;;;;;;;;;;;;28.65;39.08;100607.58;1648350;87;20582;-77
2021/06/20 05:51:17;;;;;;;;;;;;;;;28.68;38.87;100622.20;1647907;87;20189;-77
2021/06/20 05:53:43;;;;;;;;;;;;;;;28.72;38.79;100619.17;1648453;87;20205;-77
2021/06/20 05:56:09;;;;;;;;;;;;;;;28.77;38.98;100621.92;1647830;87;20416;-77
2021/06/20 05:58:36;;;;;;;;;;;;;;;28.82;38.72;100624.68;1647503;87;20455;-77
2021/06/20 06:01:02;;;;;;;;;;;;;;;28.89;39.10;100630.46;1646674;87;20238;-76
2021/06/20 06:03:34;;;;;;;;;;;;;;;29.04;38.94;100633.27;1646364;86;20176;-77
2021/06/20 06:06:04;;;;;;;;;;;;;;;29.04;39.02;100637.41;1646691;87;20183;-76
2021/06/20 06:08:31;;;;;;;;;;;;;;;29.09;38.76;100636.02;1647116;86;20407;-78
2021/06/20 06:10:57;;;;;;;;;;;;;;;29.17;38.30;100634.08;1646951;87;20194;-78
2021/06/20 06:13:23;;;;;;;;;;;;;;;29.21;38.05;100632.42;1647836;87;20144;-77
2021/06/20 06:15:50;;;;;;;;;;;;;;;29.24;37.80;100637.37;1648193;87;20141;-76
2021/06/20 06:18:16;;;;;;;;;;;;;;;29.25;37.30;100625.25;1648836;87;20193;-77
2021/06/20 06:20:42;;;;;;;;;;;;;;;29.20;37.00;100628.55;1658457;86;20216;-78
2021/06/20 06:23:10;;;;;;;;;;;;;;;29.17;37.28;100613.39;1662035;85;20188;-77
2021/06/20 06:25:36;;;;;;;;;;;;;;;29.24;38.17;100621.37;1661816;86;20194;-77
2021/06/20 06:28:03;;;;;;;;;;;;;;;29.32;38.07;100616.67;1662063;85;20146;-78
2021/06/20 06:30:29;;;;;;;;;;;;;;;29.44;37.94;100616.37;1662293;86;20146;-78
2021/06/20 06:32:55;;;;;;;;;;;;;;;29.54;37.63;100606.69;1660553;85;20253;-77
2021/06/20 06:35:21;;;;;;;;;;;;;;;29.66;37.43;100611.38;1653561;85;20189;-78
2021/06/20 06:37:49;;;;;;;;;;;;;;;29.79;37.25;100607.98;1649189;86;20459;-78
2021/06/20 06:40:16;;;;;;;;;;;;;;;29.92;36.87;100598.83;1650097;87;20190;-79
2021/06/20 06:42:43;;;;;;;;;;;;;;;30.05;36.79;100600.97;1649023;87;20195;-78
2021/06/20 06:45:11;;;;;;;;;;;;;;;30.21;36.69;100592.08;1648712;86;20305;-79
2021/06/20 06:47:36;;;;;;;;;;;;;;;30.35;36.85;100595.86;1649674;87;20507;-79
2021/06/20 06:50:04;;;;;;;;;;;;;;;30.51;37.01;100600.15;1649209;87;20190;-79
2021/06/20 06:52:30;;;;;;;;;;;;;;;30.70;36.80;100604.42;1649616;86;20132;-78
2021/06/20 06:54:56;;;;;;;;;;;;;;;30.87;36.12;100604.60;1648548;86;20310;-79
2021/06/20 06:57:23;;;;;;;;;;;;;;;31.00;35.82;100603.94;1648263;86;20447;-78
2021/06/20 06:59:50;;;;;;;;;;;;;;;31.14;35.56;100607.66;1649626;87;20752;-78
2021/06/20 07:02:16;;;;;;;;;;;;;;;31.24;35.70;100592.33;1648535;86;20198;-79
2021/06/20 07:04:44;;;;;;;;;;;;;;;31.32;35.32;100586.76;1647802;86;20193;-78
2021/06/20 07:07:12;;;;;;;;;;;;;;;31.37;35.49;100583.93;1649914;87;20193;-78
2021/06/20 07:09:38;;;;;;;;;;;;;;;31.46;35.84;100588.27;1652016;85;20195;-79
2021/06/20 07:12:06;;;;;;;;;;;;;;;31.59;35.31;100582.02;1649942;85;20091;-78
2021/06/20 07:14:36;;;;;;;;;;;;;;;31.72;34.84;100586.02;1649370;86;20175;-78
2021/06/20 07:17:06;;;;;;;;;;;;;;;31.82;34.37;100588.12;1649160;87;20148;-78
2021/06/20 07:19:34;;;;;;;;;;;;;;;31.88;34.20;100579.73;1648270;86;20162;-77
2021/06/20 07:22:01;;;;;;;;;;;;;;;31.96;34.40;100574.36;1649100;87;20184;-78
2021/06/20 07:24:27;;;;;;;;;;;;;;;32.04;33.51;100568.72;1648880;85;20127;-77
2021/06/20 07:26:52;;;;;;;;;;;;;;;32.05;33.59;100576.72;1648583;85;20178;-80
2021/06/20 07:29:18;;;;;;;;;;;;;;;32.06;33.73;100561.73;1648841;86;20170;-78
2021/06/20 07:31:44;;;;;;;;;;;;;;;32.14;33.89;100567.74;1648249;87;20233;-79
2021/06/20 07:34:10;;;;;;;;;;;;;;;32.23;33.80;100559.83;1648598;86;20194;-78
2021/06/20 07:36:36;;;;;;;;;;;;;;;32.32;34.01;100562.75;1648376;86;20209;-79
2021/06/20 07:39:03;;;;;;;;;;;;;;;32.41;33.52;100556.81;1647639;87;20480;-80
2021/06/20 07:41:29;;;;;;;;;;;;;;;32.46;33.62;100568.39;1648553;86;20204;-78
2021/06/20 07:43:55;;;;;;;;;;;;;;;32.49;33.35;100555.31;1648556;86;20187;-79
2021/06/20 07:46:21;;;;;;;;;;;;;;;32.53;33.43;100560.52;1648306;87;20253;-78
2021/06/20 07:48:47;;;;;;;;;;;;;;;32.61;33.63;100561.19;1647736;87;20185;-78
2021/06/20 07:51:13;;;;;;;;;;;;;;;32.70;33.69;100554.39;1649252;87;20209;-78
2021/06/20 07:53:39;;;;;;;;;;;;;;;32.80;33.35;100548.69;1649098;86;20139;-78
2021/06/20 07:56:06;;;;;;;;;;;;;;;32.88;33.11;100558.23;1647505;86;20178;-78
2021/06/20 07:58:32;;;;;;;;;;;;;;;32.93;32.66;100560.95;1648091;86;20433;-78
2021/06/20 08:00:58;;;;;;;;;;;;;;;32.95;32.98;100562.30;1648630;86;20174;-79
2021/06/20 08:03:24;;;;;;;;;;;;;;;33.00;32.79;100575.27;1648321;87;20198;-79
2021/06/20 08:05:50;;;;;;;;;;;;;;;33.04;32.34;100574.34;1647816;87;20194;-79
2021/06/20 08:08:17;;;;;;;;;;;;;;;33.00;32.32;100573.30;1647226;86;20206;-78
2021/06/20 08:10:44;;;;;;;;;;;;;;;32.99;32.63;100579.99;1648419;86;20210;-78
2021/06/20 08:13:11;;;;;;;;;;;;;;;32.93;32.61;100576.20;1647027;86;20198;-78
2021/06/20 08:15:39;;;;;;;;;;;;;;;32.90;32.68;100583.75;1647173;86;20818;-78
2021/06/20 08:18:07;;;;;;;;;;;;;;;32.86;32.66;100577.16;1647287;87;20471;-77
2021/06/20 08:20:33;;;;;;;;;;;;;;;32.85;32.67;100575.52;1647561;86;20183;-78
2021/06/20 08:22:59;;;;;;;;;;;;;;;32.83;33.00;100583.55;1646690;87;20154;-79
2021/06/20 08:25:25;;;;;;;;;;;;;;;32.88;33.31;100585.41;1647363;87;20291;-79
2021/06/20 08:27:51;;;;;;;;;;;;;;;32.91;33.68;100590.40;1647050;86;20325;-80
2021/06/20 08:30:18;;;;;;;;;;;;;;;32.99;32.89;100597.20;1647450;86;20194;-80
2021/06/20 08:32:44;;;;;;;;;;;;;;;32.88;32.59;100602.63;1646976;87;20178;-80
2021/06/20 08:35:13;;;;;;;;;;;;;;;32.85;32.84;100609.63;1648412;87;20291;-79
2021/06/20 08:37:39;;;;;;;;;;;;;;;32.86;32.91;100621.55;1648834;86;20182;-80
2021/06/20 08:40:06;;;;;;;;;;;;;;;32.83;32.94;100615.45;1649074;87;20225;-80
2021/06/20 08:42:32;;;;;;;;;;;;;;;32.82;33.28;100611.05;1648666;86;20147;-77
2021/06/20 08:44:58;;;;;;;;;;;;;;;32.80;33.43;100618.04;1661663;85;20273;-79
2021/06/20 08:47:24;;;;;;;;;;;;;;;32.76;33.25;100617.81;1650194;87;20213;-79
2021/06/20 08:49:50;;;;;;;;;;;;;;;32.71;33.51;100612.36;1651218;86;20175;-79
2021/06/20 08:52:16;;;;;;;;;;;;;;;32.70;33.65;100610.69;1651057;86;20194;-79
2021/06/20 08:55:00;;;;;;;;;;;;;;;32.69;33.92;100615.98;1649314;87;20210;-80
2021/06/20 08:57:10;;;;;;;;;;;;;;;32.70;33.94;100612.07;1644768;87;20174;-79
2021/06/20 08:59:36;;;;;;;;;;;;;;;32.71;33.95;100610.97;1649141;86;20147;-79
2021/06/20 09:02:03;;;;;;;;;;;;;;;32.72;34.17;100611.22;1649002;87;20207;-79
2021/06/20 09:04:32;;;;;;;;;;;;;;;32.68;34.37;100604.62;1649048;86;20393;-78
2021/06/20 09:07:00;;;;;;;;;;;;;;;32.60;34.86;100605.31;1648406;86;20170;-79
2021/06/20 09:09:28;;;;;;;;;;;;;;;32.53;35.00;100601.55;1649060;86;20182;-78
2021/06/20 09:12:08;;;;;;;;;;;;;;;32.50;35.13;100602.14;1650064;86;20170;-80
2021/06/20 09:14:49;;;;;;;;;;;;;;;32.50;34.77;100603.53;1647653;85;20198;-80
2021/06/20 09:17:27;;;;;;;;;;;;;;;32.51;34.81;100601.58;1645173;87;20183;-79
2021/06/20 09:19:56;;;;;;;;;;;;;;;32.48;35.17;100602.20;1644581;87;20190;-80
2021/06/20 09:22:22;;;;;;;;;;;;;;;32.44;35.29;100610.86;1645998;86;20206;-79
2021/06/20 09:25:07;;;;;;;;;;;;;;;32.41;35.16;100603.95;1646999;86;20357;-79
2021/06/20 09:27:33;;;;;;;;;;;;;;;32.38;35.31;100597.61;1639941;87;20175;-78
2021/06/20 09:30:11;;;;;;;;;;;;;;;32.32;35.05;100598.22;1648665;86;20312;-79
2021/06/20 09:32:40;;;;;;;;;;;;;;;32.26;35.20;100592.50;1648987;87;20432;-80
2021/06/20 09:35:07;;;;;;;;;;;;;;;32.17;35.36;100590.14;1650324;87;20711;-79
2021/06/20 09:37:34;;;;;;;;;;;;;;;32.13;35.75;100589.66;1650006;87;20213;-78
2021/06/20 09:40:15;;;;;;;;;;;;;;;32.05;35.78;100579.49;1626232;87;20138;-79
2021/06/20 09:42:42;;;;;;;;;;;;;;;31.95;36.30;100584.36;1654130;85;20146;-78
2021/06/20 09:45:08;;;;;;;;;;;;;;;31.86;35.87;100583.38;1664174;86;20195;-79
2021/06/20 09:47:40;;;;;;;;;;;;;;;31.78;35.81;100573.18;1661399;85;20473;-78
2021/06/20 09:50:07;;;;;;;;;;;;;;;31.78;35.36;100562.66;1651758;85;20158;-78
2021/06/20 09:52:34;;;;;;;;;;;;;;;31.69;35.68;100572.19;1651232;86;20203;-79
2021/06/20 09:55:12;;;;;;;;;;;;;;;31.62;36.11;100570.92;1666121;85;20157;-78
2021/06/20 09:57:43;;;;;;;;;;;;;;;31.56;36.29;100561.83;1659855;85;20185;-79
2021/06/20 10:00:10;;;;;;;;;;;;;;;31.50;36.55;100562.46;1632990;86;20212;-78
2021/06/20 10:02:41;;;;;;;;;;;;;;;31.46;37.15;100561.97;1657248;85;20152;-78
2021/06/20 10:05:08;;;;;;;;;;;;;;;31.43;37.22;100565.31;1662041;86;20134;-78
2021/06/20 10:07:34;;;;;;;;;;;;;;;31.36;37.28;100569.01;1657657;86;20332;-79
2021/06/20 10:10:00;;;;;;;;;;;;;;;31.29;37.55;100571.55;1671105;85;20214;-78
2021/06/20 10:12:28;;;;;;;;;;;;;;;31.26;37.64;100561.05;1650165;86;20180;-79
2021/06/20 10:14:56;;;;;;;;;;;;;;;31.21;37.64;100551.43;1649665;85;20176;-78
2021/06/20 10:17:33;;;;;;;;;;;;;;;31.19;38.09;100556.42;1650523;86;20139;-79
2021/06/20 10:20:05;;;;;;;;;;;;;;;31.20;38.17;100560.83;1650417;86;20551;-78
2021/06/20 10:22:40;;;;;;;;;;;;;;;31.19;37.97;100548.11;1648268;86;20220;-80
2021/06/20 10:25:08;;;;;;;;;;;;;;;31.15;38.10;100548.43;1649593;87;20400;-80
2021/06/20 10:27:41;;;;;;;;;;;;;;;31.14;38.00;100546.79;1649735;86;20194;-78
2021/06/20 10:30:11;;;;;;;;;;;;;;;31.12;38.05;100539.36;1649727;87;20453;-79
2021/06/20 10:32:43;;;;;;;;;;;;;;;31.11;37.90;100536.86;1650307;86;20168;-78
2021/06/20 10:35:21;;;;;;;;;;;;;;;31.07;37.50;100535.27;1650442;87;20146;-78
2021/06/20 10:37:49;;;;;;;;;;;;;;;31.06;37.64;100537.18;1623467;88;20228;-80
2021/06/20 10:40:30;;;;;;;;;;;;;;;31.08;37.83;100534.14;1623589;88;20206;-80
2021/06/20 10:42:57;;;;;;;;;;;;;;;31.08;37.75;100531.38;1675182;85;20182;-78
2021/06/20 10:45:28;;;;;;;;;;;;;;;31.07;38.17;100525.02;1676759;85;20182;-78
2021/06/20 10:50:37;;;;;;;;;;;;;;;31.09;38.60;100521.95;1675645;85;20177;-79
2021/06/20 10:53:03;;;;;;;;;;;;;;;31.08;38.80;100508.67;1675215;85;20156;-79
2021/06/20 10:55:50;;;;;;;;;;;;;;;31.10;38.96;100500.07;1675752;85;20187;-79
2021/06/20 10:58:29;;;;;;;;;;;;;;;31.13;38.94;100501.44;1675442;85;20191;-79
2021/06/20 11:01:09;;;;;;;;;;;;;;;31.16;38.81;100506.36;1674001;85;20501;-78
2021/06/20 11:03:36;;;;;;;;;;;;;;;31.18;38.52;100498.05;1673603;85;20308;-77
2021/06/20 11:06:09;;;;;;;;;;;;;;;31.20;38.07;100497.17;1674475;85;20172;-77
2021/06/20 11:08:44;;;;;;;;;;;;;;;31.19;37.59;100482.27;1674739;85;20414;-79
2021/06/20 11:11:17;;;;;;;;;;;;;;;31.16;37.24;100493.38;1671903;85;20168;-77
2021/06/20 11:13:46;;;;;;;;;;;;;;;31.14;37.00;100467.11;1674847;85;20188;-78
2021/06/20 11:16:26;;;;;;;;;;;;;;;31.13;36.61;100470.44;1675783;85;20145;-78
2021/06/20 11:19:26;;;;;;;;;;;;;;;31.14;36.02;100470.70;1676018;85;20145;-78
2021/06/20 11:21:57;;;;;;;;;;;;;;;31.13;35.96;100473.21;1676851;85;20134;-78
2021/06/20 11:24:35;;;;;;;;;;;;;;;31.12;35.96;100478.48;1676748;85;20149;-78
2021/06/20 11:27:05;;;;;;;;;;;;;;;31.12;36.14;100469.36;1674703;85;20189;-78
2021/06/20 11:29:43;;;;;;;;;;;;;;;31.11;36.20;100468.52;1674249;85;20187;-78
2021/06/20 11:32:19;;;;;;;;;;;;;;;31.14;36.21;100465.16;1676004;85;20153;-78
2021/06/20 11:34:58;;;;;;;;;;;;;;;31.15;36.42;100457.69;1648946;85;20184;-77
2021/06/20 11:37:31;;;;;;;;;;;;;;;31.13;36.68;100455.23;1644751;87;20352;-77
2021/06/20 11:39:59;;;;;;;;;;;;;;;31.14;37.12;100465.73;1647729;87;20147;-78
2021/06/20 11:42:28;;;;;;;;;;;;;;;31.12;37.23;100448.05;1648657;87;20224;-78
2021/06/20 11:44:58;;;;;;;;;;;;;;;31.12;37.35;100455.53;1648237;87;20179;-79
2021/06/20 11:47:38;;;;;;;;;;;;;;;31.10;37.05;100469.64;1647989;87;20203;-78
2021/06/20 11:50:14;;;;;;;;;;;;;;;31.09;36.63;100463.84;1651679;85;20189;-77
2021/06/20 11:52:40;;;;;;;;;;;;;;;31.08;36.42;100457.49;1649061;85;20182;-77
2021/06/20 11:55:12;;;;;;;;;;;;;;;31.10;36.44;100457.19;1646625;86;20353;-78
2021/06/20 11:57:38;;;;;;;;;;;;;;;31.11;36.49;100458.01;1658039;85;20192;-79
2021/06/20 12:00:12;;;;;;;;;;;;;;;31.12;36.80;100459.68;1674104;85;20187;-78
2021/06/20 12:02:41;;;;;;;;;;;;;;;31.14;36.82;100456.86;1650091;86;20158;-78
2021/06/20 12:05:13;;;;;;;;;;;;;;;31.15;37.10;100450.77;1651086;86;20176;-78
2021/06/20 12:07:40;;;;;;;;;;;;;;;31.15;37.56;100465.42;1654562;85;20308;-79
2021/06/20 12:10:09;;;;;;;;;;;;;;;31.16;38.10;100457.41;1660965;86;20184;-78
2021/06/20 12:12:38;;;;;;;;;;;;;;;31.15;36.67;100464.60;1641847;86;20232;-79
2021/06/20 12:15:06;;;;;;;;;;;;;;;31.12;35.82;100466.59;1657884;85;20178;-78
2021/06/20 12:17:32;;;;;;;;;;;;;;;31.10;35.46;100469.64;1646588;87;20251;-79
2021/06/20 12:19:58;;;;;;;;;;;;;;;31.08;35.58;100467.73;1647217;87;20285;-78
2021/06/20 12:22:25;;;;;;;;;;;;;;;31.05;36.14;100465.55;1648838;87;20189;-78
2021/06/20 12:24:58;;;;;;;;;;;;;;;30.98;36.59;100466.48;1648956;87;20615;-78
2021/06/20 12:27:30;;;;;;;;;;;;;;;30.90;37.26;100457.44;1670482;85;20568;-79
2021/06/20 12:29:56;;;;;;;;;;;;;;;30.83;37.70;100453.06;1657037;85;20180;-78
2021/06/20 12:32:23;;;;;;;;;;;;;;;30.81;37.99;100458.08;1662306;85;20172;-79
2021/06/20 12:34:51;;;;;;;;;;;;;;;30.81;37.95;100460.84;1662888;86;20541;-78
2021/06/20 12:37:18;;;;;;;;;;;;;;;30.83;37.91;100465.50;1664758;86;20188;-79
2021/06/20 12:39:53;;;;;;;;;;;;;;;30.84;38.17;100463.56;1664211;85;20162;-78
2021/06/20 12:42:20;;;;;;;;;;;;;;;30.86;38.39;100458.58;1649240;85;20195;-78